ADDS METAR Data

Data at: 0211 UTC 24 Nov 2017

METAR for:KJFK (New York/Kennedy Int, NY, US)
Text:KJFK 240151Z 26008KT 10SM FEW190 FEW250 03/M05 A3004 RMK AO2 SLP170 T00331050
Temperature: 3.3°C ( 38°F)
Dewpoint: -5.0°C ( 23°F) [RH = 54%]
Pressure (altimeter):30.04 inches Hg (1017.4 mb) [Sea level pressure: 1017.0 mb]
Winds:from the W (260 degrees) at 9 MPH (8 knots; 4.1 m/s)
Visibility:10 or more sm (16+ km)
Ceiling:at least 12,000 feet AGL
Clouds: few clouds at 19000 feet AGL, few clouds at 25000 feet AGL